Time;durP1;ratioP1;P1;durP2;ratioP2;P2;SDS_P1;SDS_P2;PMS_P1;PMS_P2;Temp;Humidity;BMP_temperature;BMP_pressure;BME280_temperature;BME280_humidity;BME280_pressure;Samples;Min_cycle;Max_cycle;Signal;HPM_P1;HPM_P2
2024/04/08 04:03:38;;;;;;;4.90;2.10;;;14.60;97.30;;;;;;4982769;28;20520;-64
2024/04/08 04:06:05;;;;;;;1.40;1.30;;;14.50;97.30;;;;;;4980577;28;20445;-64
2024/04/08 04:08:30;;;;;;;1.87;1.77;;;14.50;97.30;;;;;;4976449;28;20193;-65
2024/04/08 04:10:56;;;;;;;1.20;1.10;;;14.50;97.30;;;;;;4967031;28;20462;-65
2024/04/08 04:13:22;;;;;;;1.87;1.77;;;14.50;97.30;;;;;;4971633;28;20203;-65
2024/04/08 04:15:48;;;;;;;1.20;1.10;;;14.50;97.30;;;;;;4961736;28;20449;-65
2024/04/08 04:18:13;;;;;;;1.77;1.67;;;14.50;97.30;;;;;;4976152;28;20179;-65
2024/04/08 04:20:40;;;;;;;1.37;1.27;;;14.50;97.30;;;;;;4956036;28;20206;-65
2024/04/08 04:23:07;;;;;;;1.77;1.53;;;14.40;97.30;;;;;;4960890;28;20242;-65
2024/04/08 04:25:32;;;;;;;10.13;2.23;;;14.40;97.30;;;;;;4954242;28;20483;-65
2024/04/08 04:28:00;;;;;;;3.70;2.80;;;14.40;97.30;;;;;;4963868;28;20840;-65
2024/04/08 04:30:26;;;;;;;2.07;1.33;;;14.50;97.30;;;;;;4956319;28;20195;-65
2024/04/08 04:32:51;;;;;;;1.70;1.40;;;14.50;97.30;;;;;;4963684;28;20458;-65
2024/04/08 04:35:17;;;;;;;1.87;1.47;;;14.50;97.30;;;;;;4965103;28;20433;-65
2024/04/08 04:37:43;;;;;;;1.10;1.00;;;14.50;97.30;;;;;;4961262;28;20345;-65
2024/04/08 04:40:09;;;;;;;1.67;1.63;;;14.50;97.30;;;;;;4972486;28;20178;-65
2024/04/08 04:42:35;;;;;;;2.07;1.27;;;14.50;97.30;;;;;;4965195;28;20275;-64
2024/04/08 04:45:01;;;;;;;1.30;1.27;;;14.50;97.30;;;;;;4953973;28;20958;-65
2024/04/08 04:47:26;;;;;;;2.93;1.93;;;14.50;97.30;;;;;;4965864;28;20432;-65
2024/04/08 04:49:52;;;;;;;3.03;1.60;;;14.50;97.30;;;;;;4962865;28;20186;-64
2024/04/08 04:52:17;;;;;;;1.70;1.60;;;14.50;97.30;;;;;;4964994;28;20290;-65
2024/04/08 04:54:43;;;;;;;1.77;1.67;;;14.50;97.30;;;;;;4968564;28;20197;-65
2024/04/08 04:57:08;;;;;;;1.57;1.47;;;14.40;97.30;;;;;;4958165;28;20201;-65
2024/04/08 04:59:34;;;;;;;1.47;1.37;;;14.40;97.30;;;;;;4964181;28;20190;-65
2024/04/08 05:01:59;;;;;;;4.53;3.00;;;14.40;97.30;;;;;;4966130;28;20238;-65
2024/04/08 05:04:25;;;;;;;2.27;1.97;;;14.40;97.30;;;;;;4969437;28;20194;-65
2024/04/08 05:06:50;;;;;;;1.20;1.10;;;14.40;97.30;;;;;;4964521;28;20555;-65
2024/04/08 05:09:16;;;;;;;2.03;1.67;;;14.40;97.30;;;;;;4954109;28;20563;-65
2024/04/08 05:11:41;;;;;;;44.10;2.00;;;14.50;97.30;;;;;;4960474;28;20541;-65
2024/04/08 05:14:07;;;;;;;1.97;1.80;;;14.50;97.30;;;;;;4968858;28;20211;-65
2024/04/08 05:16:33;;;;;;;1.07;1.00;;;14.60;97.30;;;;;;4961387;28;20678;-65
2024/04/08 05:18:58;;;;;;;1.60;1.50;;;14.60;97.30;;;;;;4958461;28;20189;-65
2024/04/08 05:21:24;;;;;;;1.33;1.23;;;14.60;97.30;;;;;;4970612;28;20450;-65
2024/04/08 05:23:49;;;;;;;1.83;1.20;;;14.70;97.30;;;;;;4963080;28;20186;-64
2024/04/08 05:26:16;;;;;;;2.57;1.77;;;14.80;97.30;;;;;;4982463;23;20301;-62
2024/04/08 05:28:41;;;;;;;7.27;2.00;;;14.90;97.30;;;;;;4973156;28;20186;-64
2024/04/08 05:31:07;;;;;;;2.60;2.30;;;14.90;97.30;;;;;;4966142;28;20443;-64
2024/04/08 05:33:33;;;;;;;2.20;1.43;;;15.00;97.30;;;;;;4956746;28;20235;-62
2024/04/08 05:35:59;;;;;;;3.10;1.87;;;15.10;97.30;;;;;;4947896;28;20664;-64
2024/04/08 05:40:17;;;;;;;1.40;1.30;;;15.10;97.30;;;;;;5522866;25;21196;-63
2024/04/08 05:42:46;;;;;;;3.03;2.00;;;15.20;97.30;;;;;;5508211;25;20534;-64
2024/04/08 05:45:12;;;;;;;2.30;1.77;;;15.20;97.30;;;;;;5485667;25;20729;-63
2024/04/08 05:47:38;;;;;;;1.63;1.53;;;15.30;97.30;;;;;;5509223;25;20455;-64
2024/04/08 05:50:04;;;;;;;25.07;1.97;;;15.40;97.30;;;;;;5459514;26;20239;-65
2024/04/08 05:52:31;;;;;;;1.40;1.30;;;15.60;97.30;;;;;;5494843;26;20547;-65
2024/04/08 05:54:56;;;;;;;2.23;1.97;;;15.80;97.30;;;;;;5502134;25;20475;-64
2024/04/08 05:57:23;;;;;;;2.77;2.50;;;16.00;97.30;;;;;;5513891;25;20879;-64
2024/04/08 05:59:48;;;;;;;2.50;2.30;;;16.10;97.30;;;;;;5494113;25;20218;-63
2024/04/08 06:02:14;;;;;;;7.60;2.53;;;16.20;97.30;;;;;;5515586;25;21064;-64
2024/04/08 06:04:40;;;;;;;1.53;1.10;;;16.30;97.30;;;;;;5469809;26;20478;-64
2024/04/08 06:07:08;;;;;;;1.97;1.47;;;16.40;97.30;;;;;;5513311;25;20234;-64
2024/04/08 06:09:34;;;;;;;3.57;1.73;;;16.50;97.30;;;;;;5503842;25;20460;-64
2024/04/08 06:11:59;;;;;;;2.73;1.30;;;16.50;97.30;;;;;;5505266;25;20596;-64
2024/04/08 06:14:25;;;;;;;1.67;1.47;;;16.50;97.30;;;;;;5511489;25;20501;-64
2024/04/08 06:16:50;;;;;;;3.17;1.60;;;16.60;97.30;;;;;;5508280;25;20234;-64
2024/04/08 06:19:16;;;;;;;5.33;1.73;;;16.60;97.30;;;;;;5508645;25;20279;-64
2024/04/08 06:21:41;;;;;;;13.90;2.67;;;16.70;97.30;;;;;;5467217;26;20242;-64
2024/04/08 06:24:07;;;;;;;1.53;1.43;;;16.70;97.30;;;;;;5516581;25;20306;-64
2024/04/08 06:26:33;;;;;;;2.07;1.40;;;16.70;97.30;;;;;;5508026;25;20285;-64
2024/04/08 06:28:58;;;;;;;4.50;2.70;;;16.80;97.30;;;;;;5510321;25;20246;-64
2024/04/08 06:31:24;;;;;;;1.60;1.50;;;16.80;97.30;;;;;;5473045;26;20242;-64
2024/04/08 06:33:49;;;;;;;2.23;2.03;;;16.90;97.30;;;;;;5508196;25;20230;-64
2024/04/08 06:36:15;;;;;;;6.73;2.23;;;16.90;97.30;;;;;;5516379;25;20230;-64
2024/04/08 06:38:40;;;;;;;3.70;2.30;;;17.00;97.30;;;;;;5493803;25;20335;-64
2024/04/08 06:41:06;;;;;;;3.03;2.63;;;17.00;97.30;;;;;;5499497;25;20234;-65
2024/04/08 06:43:31;;;;;;;1.87;1.77;;;17.10;97.30;;;;;;5507897;25;20692;-64
2024/04/08 06:45:58;;;;;;;4.17;3.37;;;17.20;97.30;;;;;;5472031;25;20235;-64
2024/04/08 06:48:23;;;;;;;2.10;1.93;;;17.30;97.30;;;;;;5505702;25;20277;-64
2024/04/08 06:50:50;;;;;;;3.47;1.93;;;17.30;97.30;;;;;;5494967;25;21006;-64
2024/04/08 06:53:17;;;;;;;3.90;3.00;;;17.30;97.30;;;;;;5483553;26;20287;-67
2024/04/08 06:55:42;;;;;;;2.60;2.03;;;17.40;97.30;;;;;;5475851;26;21078;-67
2024/04/08 06:58:11;;;;;;;2.07;1.93;;;17.20;97.30;;;;;;5499094;26;20566;-65
2024/04/08 07:00:37;;;;;;;2.93;1.77;;;17.20;97.30;;;;;;5491125;25;20233;-64
2024/04/08 07:03:04;;;;;;;3.13;2.60;;;17.10;97.30;;;;;;5499242;26;20516;-65
2024/04/08 07:05:30;;;;;;;3.07;2.10;;;17.20;97.30;;;;;;5491195;26;20230;-65
2024/04/08 07:07:56;;;;;;;2.43;2.13;;;17.20;97.30;;;;;;5484364;26;20916;-64
2024/04/08 07:10:23;;;;;;;2.43;2.27;;;17.10;97.30;;;;;;5494175;26;20729;-65
2024/04/08 07:12:48;;;;;;;3.20;1.70;;;17.10;97.30;;;;;;5450078;26;20223;-63
2024/04/08 07:15:14;;;;;;;10.13;3.20;;;17.10;97.30;;;;;;5487294;26;20497;-65
2024/04/08 07:17:39;;;;;;;2.67;2.50;;;17.20;97.30;;;;;;5489833;26;20223;-64
2024/04/08 07:20:05;;;;;;;2.13;1.97;;;17.30;97.30;;;;;;5460771;25;20261;-66
2024/04/08 07:22:31;;;;;;;3.57;2.33;;;17.40;97.30;;;;;;5455189;26;20230;-64
2024/04/08 07:24:56;;;;;;;6.87;2.10;;;17.40;97.30;;;;;;5483204;26;20223;-64
2024/04/08 07:27:22;;;;;;;2.70;2.50;;;17.50;97.30;;;;;;5490949;26;20324;-64
2024/04/08 07:29:47;;;;;;;9.17;2.20;;;17.60;97.30;;;;;;5483624;26;20330;-65
2024/04/08 07:32:13;;;;;;;11.40;3.70;;;17.60;97.30;;;;;;5490100;25;20243;-64
2024/04/08 07:34:38;;;;;;;5.53;3.63;;;17.60;97.30;;;;;;5497617;26;20221;-64
2024/04/08 07:37:04;;;;;;;17.63;3.13;;;17.70;97.30;;;;;;5457679;26;20222;-65
2024/04/08 07:39:29;;;;;;;4.23;2.33;;;17.80;97.30;;;;;;5490120;26;20402;-65
2024/04/08 07:41:55;;;;;;;6.60;2.40;;;17.80;97.30;;;;;;5483207;26;20334;-65
2024/04/08 07:44:21;;;;;;;2.17;1.97;;;18.00;97.30;;;;;;5483149;26;20656;-64
2024/04/08 07:46:47;;;;;;;2.70;2.13;;;18.10;97.30;;;;;;5482830;26;20468;-65
2024/04/08 07:49:12;;;;;;;2.50;2.07;;;18.00;97.30;;;;;;5489720;26;20358;-64
2024/04/08 07:51:38;;;;;;;2.10;1.90;;;18.00;97.30;;;;;;5450199;26;20269;-64
2024/04/08 07:54:03;;;;;;;5.77;2.67;;;18.00;97.30;;;;;;5481458;26;20235;-64
2024/04/08 07:56:29;;;;;;;4.40;2.63;;;17.90;97.30;;;;;;5484626;26;20602;-64
2024/04/08 07:58:54;;;;;;;2.80;2.37;;;17.90;97.30;;;;;;5489812;26;20215;-64
2024/04/08 08:01:20;;;;;;;2.57;2.30;;;17.90;97.30;;;;;;5476838;26;20228;-64
2024/04/08 08:03:46;;;;;;;4.20;1.80;;;17.90;97.30;;;;;;5488782;26;20223;-64
2024/04/08 08:06:11;;;;;;;5.30;2.10;;;17.90;97.30;;;;;;5454426;26;20231;-64
2024/04/08 08:08:37;;;;;;;3.27;2.50;;;18.00;97.30;;;;;;5483146;26;20235;-64
2024/04/08 08:11:05;;;;;;;8.70;3.90;;;18.00;97.30;;;;;;5482274;26;20223;-64
2024/04/08 08:13:31;;;;;;;5.23;2.83;;;18.10;97.30;;;;;;5489166;26;20229;-64
2024/04/08 08:15:57;;;;;;;1.97;1.90;;;18.20;97.30;;;;;;5483432;26;20460;-64
2024/04/08 08:18:23;;;;;;;2.40;2.20;;;18.40;97.30;;;;;;5476719;26;20997;-64
2024/04/08 08:20:50;;;;;;;3.43;2.00;;;18.60;97.30;;;;;;5474423;26;20299;-64
2024/04/08 08:23:16;;;;;;;3.37;1.27;;;18.70;97.30;;;;;;5488877;26;20451;-64
2024/04/08 08:25:41;;;;;;;7.50;2.40;;;18.80;97.30;;;;;;5495163;26;20503;-64
2024/04/08 08:28:07;;;;;;;3.43;2.13;;;18.80;97.30;;;;;;5476367;26;20678;-64
2024/04/08 08:30:36;;;;;;;1.67;1.63;;;18.90;97.30;;;;;;5482451;26;20238;-64
2024/04/08 08:33:01;;;;;;;3.27;2.40;;;19.00;97.30;;;;;;5472309;26;20272;-64
2024/04/08 08:35:27;;;;;;;3.47;2.90;;;19.30;97.30;;;;;;5472818;26;20467;-64
2024/04/08 08:37:52;;;;;;;6.37;2.30;;;19.60;97.30;;;;;;5442857;26;20231;-64
2024/04/08 08:40:20;;;;;;;4.73;2.90;;;20.00;97.30;;;;;;5490001;26;20227;-64
2024/04/08 08:42:49;;;;;;;1.83;1.73;;;20.20;97.30;;;;;;5488269;26;20680;-64
2024/04/08 08:45:16;;;;;;;2.50;1.90;;;20.40;97.30;;;;;;5482572;26;20512;-64
2024/04/08 08:47:41;;;;;;;2.60;2.40;;;20.50;97.30;;;;;;5493711;26;20895;-64
2024/04/08 08:50:09;;;;;;;3.30;2.23;;;20.60;97.30;;;;;;5487593;26;20523;-65
2024/04/08 08:52:35;;;;;;;4.70;2.73;;;20.70;97.30;;;;;;5449707;26;20269;-64
2024/04/08 08:55:02;;;;;;;2.13;1.57;;;20.80;97.30;;;;;;5481753;26;20463;-65
2024/04/08 08:57:30;;;;;;;2.90;1.60;;;20.90;94.80;;;;;;5487709;26;20269;-65
2024/04/08 08:59:58;;;;;;;5.53;1.37;;;21.10;94.80;;;;;;5493567;26;20467;-64
2024/04/08 09:02:25;;;;;;;5.90;1.67;;;21.40;94.50;;;;;;5516053;25;20932;-64
2024/04/08 09:04:51;;;;;;;6.93;1.40;;;21.50;93.80;;;;;;5488761;26;20447;-64
2024/04/08 09:07:17;;;;;;;3.37;1.77;;;21.60;91.60;;;;;;5485810;26;20523;-65
2024/04/08 09:09:56;;;;;;;4.73;2.27;;;21.40;91.20;;;;;;5451450;26;20581;-65
2024/04/08 09:12:22;;;;;;;1.30;1.23;;;21.30;92.30;;;;;;5486764;26;22857;-64
2024/04/08 09:14:51;;;;;;;10.23;1.53;;;21.50;92.20;;;;;;5491912;26;20464;-64
2024/04/08 09:17:17;;;;;;;1.60;1.53;;;21.70;93.40;;;;;;5496180;26;20298;-66
2024/04/08 09:19:43;;;;;;;6.87;2.93;;;21.80;91.10;;;;;;5488386;26;20471;-65
2024/04/08 09:22:08;;;;;;;1.80;1.70;;;21.70;90.80;;;;;;5493229;25;20456;-65
2024/04/08 09:24:34;;;;;;;1.63;1.20;;;21.80;91.80;;;;;;5495875;26;20359;-65
2024/04/08 09:27:01;;;;;;;9.60;1.43;;;21.80;90.80;;;;;;5487313;26;20304;-65
2024/04/08 09:29:26;;;;;;;1.73;1.17;;;22.00;89.20;;;;;;5487162;26;20227;-65
2024/04/08 09:31:52;;;;;;;2.33;2.13;;;22.10;89.20;;;;;;5486899;25;20515;-65
2024/04/08 09:34:21;;;;;;;7.10;2.20;;;22.40;88.30;;;;;;5491190;26;20246;-65
2024/04/08 09:36:47;;;;;;;2.43;2.23;;;22.60;87.80;;;;;;5459090;26;20266;-65
2024/04/08 09:39:13;;;;;;;1.30;1.20;;;22.90;85.40;;;;;;5491216;26;20500;-66
2024/04/08 09:41:42;;;;;;;5.57;2.00;;;23.00;85.30;;;;;;5486393;26;20568;-65
2024/04/08 09:44:12;;;;;;;2.47;1.13;;;23.20;86.50;;;;;;5477279;26;20853;-65
2024/04/08 09:46:40;;;;;;;1.53;1.43;;;23.60;86.30;;;;;;5456577;26;20458;-65
2024/04/08 09:49:09;;;;;;;1.07;0.97;;;23.80;84.30;;;;;;5486084;26;20456;-65
2024/04/08 09:51:39;;;;;;;1.87;1.50;;;23.90;83.80;;;;;;5485900;26;20454;-65
2024/04/08 09:54:04;;;;;;;1.33;1.30;;;24.00;85.60;;;;;;5490479;26;20528;-65
2024/04/08 09:56:35;;;;;;;3.77;2.33;;;24.20;85.20;;;;;;5485101;26;20464;-65
2024/04/08 09:59:08;;;;;;;0.90;0.80;;;24.40;86.20;;;;;;5478839;26;20630;-65
2024/04/08 10:01:38;;;;;;;2.40;2.03;;;24.60;82.70;;;;;;5481833;26;21001;-64
2024/04/08 10:04:11;;;;;;;1.10;1.03;;;24.70;82.50;;;;;;5453724;26;20566;-65
2024/04/08 10:06:38;;;;;;;8.23;1.57;;;24.70;81.90;;;;;;5482207;26;20615;-65
2024/04/08 10:09:03;;;;;;;4.80;2.17;;;24.80;82.60;;;;;;5484797;26;20472;-64
2024/04/08 10:11:29;;;;;;;5.20;1.63;;;24.90;81.20;;;;;;5452654;26;20581;-64
2024/04/08 10:13:55;;;;;;;2.63;2.23;;;25.00;81.10;;;;;;5484853;26;20273;-64
2024/04/08 10:16:20;;;;;;;1.40;1.20;;;25.20;83.30;;;;;;5476635;26;20284;-65
2024/04/08 10:18:56;;;;;;;10.53;1.40;;;25.40;80.70;;;;;;5488752;26;20227;-66
2024/04/08 10:21:23;;;;;;;2.20;1.43;;;25.20;80.50;;;;;;5484332;26;20323;-65
2024/04/08 10:23:52;;;;;;;5.97;2.97;;;25.20;81.10;;;;;;5473528;26;20468;-65
2024/04/08 10:26:18;;;;;;;2.30;1.90;;;25.40;80.40;;;;;;5490829;26;20511;-66
2024/04/08 10:28:44;;;;;;;2.13;1.70;;;25.50;79.70;;;;;;5484425;26;20558;-66
2024/04/08 10:31:12;;;;;;;2.40;1.73;;;25.40;80.00;;;;;;5492556;26;20227;-65
2024/04/08 10:33:38;;;;;;;15.30;1.77;;;25.50;79.80;;;;;;5494656;26;20450;-65
2024/04/08 10:36:04;;;;;;;1.27;1.17;;;25.60;78.30;;;;;;5488026;26;20524;-66
2024/04/08 10:38:30;;;;;;;3.00;1.87;;;25.70;77.40;;;;;;5490599;26;20237;-66
2024/04/08 10:40:56;;;;;;;1.93;1.90;;;26.00;78.10;;;;;;5446066;26;20469;-66
2024/04/08 10:43:23;;;;;;;2.40;1.53;;;26.30;77.40;;;;;;5480593;26;20448;-66
2024/04/08 10:45:54;;;;;;;0.97;0.80;;;26.40;76.70;;;;;;5480119;26;20274;-66
2024/04/08 10:48:20;;;;;;;21.33;2.23;;;26.60;75.70;;;;;;5455055;26;20586;-68
2024/04/08 10:50:48;;;;;;;3.40;1.13;;;26.70;76.20;;;;;;5488219;26;20943;-65
2024/04/08 10:53:14;;;;;;;1.90;1.17;;;26.80;75.30;;;;;;5485628;26;20694;-66
2024/04/08 10:55:40;;;;;;;1.33;1.23;;;27.10;75.50;;;;;;5481564;26;21038;-66
2024/04/08 10:58:06;;;;;;;1.27;1.17;;;27.20;74.90;;;;;;5451472;26;20265;-67
2024/04/08 11:00:32;;;;;;;0.93;0.83;;;27.20;73.50;;;;;;5490410;26;20321;-66
2024/04/08 11:02:58;;;;;;;2.00;1.27;;;27.20;73.30;;;;;;5454838;26;20519;-66
2024/04/08 11:05:25;;;;;;;1.20;1.10;;;27.00;73.60;;;;;;5457805;26;20986;-66
2024/04/08 11:07:51;;;;;;;1.80;1.33;;;26.80;73.20;;;;;;5486963;26;20235;-66
2024/04/08 11:10:17;;;;;;;1.30;1.10;;;26.70;74.90;;;;;;5490793;25;21132;-66
2024/04/08 11:12:43;;;;;;;4.80;1.80;;;26.80;72.10;;;;;;5456092;26;20471;-66
2024/04/08 11:15:10;;;;;;;1.07;1.00;;;27.20;70.80;;;;;;5483892;26;20539;-66
2024/04/08 11:17:36;;;;;;;1.83;1.00;;;27.40;69.00;;;;;;5488040;26;20443;-66
2024/04/08 11:20:03;;;;;;;1.30;1.20;;;27.60;66.90;;;;;;5483315;26;20610;-65
2024/04/08 11:22:28;;;;;;;0.93;0.93;;;27.70;65.40;;;;;;5485469;26;20445;-67
2024/04/08 11:24:54;;;;;;;4.40;2.57;;;27.70;62.80;;;;;;5482514;26;20927;-67
2024/04/08 11:27:23;;;;;;;2.57;1.83;;;28.00;66.70;;;;;;5486294;26;20671;-67
2024/04/08 11:29:49;;;;;;;1.37;1.23;;;28.30;66.10;;;;;;5474443;26;20734;-67
2024/04/08 11:32:15;;;;;;;1.43;1.20;;;28.50;64.50;;;;;;5486511;26;21116;-68
2024/04/08 11:34:42;;;;;;;6.53;1.50;;;28.70;62.40;;;;;;5484964;26;20463;-68
2024/04/08 11:37:09;;;;;;;3.27;2.00;;;28.70;65.10;;;;;;5482470;26;20269;-66
2024/04/08 11:39:39;;;;;;;2.20;1.87;;;28.80;62.20;;;;;;5376319;21;20566;-66
2024/04/08 11:42:06;;;;;;;3.33;1.30;;;28.70;61.30;;;;;;5331060;26;21029;-64
2024/04/08 11:44:36;;;;;;;1.93;1.60;;;28.60;61.70;;;;;;5340447;26;20481;-64
2024/04/08 11:47:02;;;;;;;3.43;1.67;;;28.60;61.00;;;;;;5340991;26;20876;-64
2024/04/08 11:49:30;;;;;;;1.00;0.90;;;28.90;62.20;;;;;;5344198;26;20583;-65
2024/04/08 11:51:56;;;;;;;4.43;1.30;;;29.10;61.10;;;;;;5351466;26;20580;-64
2024/04/08 11:54:21;;;;;;;3.97;2.00;;;29.20;61.70;;;;;;5340447;26;20473;-64
2024/04/08 11:56:47;;;;;;;7.63;2.43;;;29.20;61.00;;;;;;5340893;26;20730;-65
2024/04/08 11:59:12;;;;;;;5.60;2.20;;;29.30;61.50;;;;;;5307733;26;20695;-65
2024/04/08 12:01:43;;;;;;;1.70;1.47;;;29.60;62.30;;;;;;5340647;26;20231;-64
2024/04/08 12:04:09;;;;;;;2.57;1.90;;;29.80;62.70;;;;;;5340760;26;20786;-64
2024/04/08 12:06:34;;;;;;;1.73;1.63;;;29.90;61.50;;;;;;5324140;26;21872;-65
2024/04/08 12:09:00;;;;;;;6.27;2.37;;;29.90;61.10;;;;;;5340740;26;20746;-64
2024/04/08 12:11:25;;;;;;;2.27;1.07;;;29.60;59.30;;;;;;5339260;26;20247;-64
2024/04/08 12:13:51;;;;;;;2.90;1.67;;;29.80;60.40;;;;;;5340668;26;20857;-65
2024/04/08 12:16:17;;;;;;;1.17;1.07;;;29.90;60.30;;;;;;5340131;26;20584;-67
2024/04/08 12:18:43;;;;;;;3.13;1.07;;;29.80;60.20;;;;;;5355024;26;20458;-65
2024/04/08 12:21:09;;;;;;;3.33;2.83;;;29.70;61.40;;;;;;5340191;26;20238;-66
2024/04/08 12:23:35;;;;;;;1.30;1.20;;;29.70;61.40;;;;;;5340247;26;20467;-65
2024/04/08 12:26:00;;;;;;;1.47;1.37;;;29.90;62.00;;;;;;5310203;26;20289;-64
2024/04/08 12:28:26;;;;;;;19.37;2.50;;;30.10;63.10;;;;;;5340688;26;20947;-65
2024/04/08 12:30:53;;;;;;;14.97;1.73;;;30.40;62.30;;;;;;5355182;26;20723;-65
2024/04/08 12:33:19;;;;;;;10.80;1.60;;;30.20;60.90;;;;;;5309933;26;20227;-65
2024/04/08 12:35:45;;;;;;;9.10;2.23;;;30.30;62.70;;;;;;5340932;26;21385;-65
2024/04/08 12:38:13;;;;;;;6.03;1.57;;;30.30;63.50;;;;;;5338569;26;21067;-66
2024/04/08 12:40:39;;;;;;;3.63;1.40;;;30.50;61.40;;;;;;5338433;26;20534;-65
2024/04/08 12:43:05;;;;;;;1.63;1.10;;;30.30;61.90;;;;;;5307497;26;20473;-65
2024/04/08 12:45:30;;;;;;;1.77;1.70;;;30.30;61.80;;;;;;5322846;26;20872;-65
2024/04/08 12:47:56;;;;;;;16.33;2.67;;;30.50;63.80;;;;;;5336013;26;20272;-66
2024/04/08 12:50:22;;;;;;;9.60;2.70;;;30.80;61.70;;;;;;5336421;26;20269;-65
2024/04/08 12:52:47;;;;;;;1.30;1.23;;;30.50;60.50;;;;;;5338093;26;20587;-66
2024/04/08 12:55:13;;;;;;;3.63;2.07;;;30.60;63.20;;;;;;5307777;26;20850;-65
2024/04/08 12:57:38;;;;;;;2.73;2.10;;;30.70;61.90;;;;;;5352365;26;20322;-66
2024/04/08 13:00:08;;;;;;;3.10;1.93;;;30.40;61.40;;;;;;5335776;26;20235;-66
2024/04/08 13:02:37;;;;;;;7.17;2.80;;;30.60;60.80;;;;;;5337600;26;20576;-68
2024/04/08 13:05:03;;;;;;;2.97;1.17;;;30.80;60.60;;;;;;5309314;26;20508;-66
2024/04/08 13:07:29;;;;;;;8.17;1.90;;;30.80;60.70;;;;;;5339450;26;20457;-66
2024/04/08 13:09:54;;;;;;;1.37;1.27;;;30.70;60.80;;;;;;5347686;26;20796;-66
2024/04/08 13:12:20;;;;;;;4.83;1.40;;;30.50;61.70;;;;;;5337642;26;20278;-66
2024/04/08 13:14:46;;;;;;;8.33;1.67;;;30.20;62.20;;;;;;5339635;26;20227;-67
2024/04/08 13:17:12;;;;;;;3.90;2.20;;;29.90;62.50;;;;;;5339463;26;20500;-66
2024/04/08 13:19:38;;;;;;;2.50;1.37;;;29.70;62.70;;;;;;5308386;26;20466;-66
2024/04/08 13:22:04;;;;;;;2.40;2.00;;;29.30;62.70;;;;;;5343904;26;20237;-67
2024/04/08 13:24:30;;;;;;;6.60;1.43;;;29.20;63.30;;;;;;5313489;26;20581;-66
2024/04/08 13:26:56;;;;;;;8.53;1.43;;;29.10;63.10;;;;;;5309217;26;20722;-67
2024/04/08 13:29:21;;;;;;;5.70;1.87;;;29.20;63.60;;;;;;5309540;26;20457;-66
2024/04/08 13:31:47;;;;;;;1.20;1.10;;;29.40;64.80;;;;;;5339523;26;20246;-67
2024/04/08 13:34:12;;;;;;;1.70;1.40;;;29.60;62.70;;;;;;5316427;26;20826;-66
2024/04/08 13:36:38;;;;;;;4.40;0.90;;;29.50;64.20;;;;;;5338517;26;20302;-67
2024/04/08 13:39:03;;;;;;;6.80;1.70;;;29.40;63.40;;;;;;5327708;26;20243;-68
2024/04/08 13:41:29;;;;;;;7.53;2.20;;;29.40;63.50;;;;;;5352663;26;20726;-69
2024/04/08 13:43:55;;;;;;;6.20;2.33;;;29.60;62.90;;;;;;5335199;26;20273;-66
2024/04/08 13:46:21;;;;;;;5.93;2.30;;;29.60;63.50;;;;;;5308840;26;20756;-67
2024/04/08 13:48:47;;;;;;;20.70;1.50;;;29.70;63.10;;;;;;5338241;26;20231;-66
2024/04/08 13:51:13;;;;;;;1.57;1.13;;;29.90;63.40;;;;;;5339206;26;20856;-66
2024/04/08 13:53:39;;;;;;;1.63;1.53;;;30.20;62.30;;;;;;5338890;26;20461;-66
2024/04/08 13:56:04;;;;;;;16.33;2.87;;;30.40;62.90;;;;;;5336372;26;20747;-66
2024/04/08 13:58:30;;;;;;;3.30;1.80;;;30.60;62.90;;;;;;5337758;26;20787;-66
2024/04/08 14:00:56;;;;;;;3.07;2.07;;;30.80;61.60;;;;;;5338932;26;20717;-66
2024/04/08 14:03:25;;;;;;;5.30;1.23;;;30.90;62.10;;;;;;5340514;26;20276;-66
2024/04/08 14:05:50;;;;;;;1.50;1.37;;;30.90;61.60;;;;;;5342161;26;20231;-66
2024/04/08 14:08:16;;;;;;;1.37;1.30;;;30.60;62.00;;;;;;5311022;26;20580;-65
2024/04/08 14:10:42;;;;;;;1.50;1.40;;;30.80;63.40;;;;;;5341854;26;20235;-66
2024/04/08 14:13:07;;;;;;;3.13;1.70;;;31.00;63.20;;;;;;5341579;26;20273;-66
2024/04/08 14:15:33;;;;;;;4.63;1.87;;;31.10;62.30;;;;;;5311005;26;20730;-66
2024/04/08 14:17:59;;;;;;;1.93;1.67;;;31.10;61.80;;;;;;5310965;26;20719;-66
2024/04/08 14:20:25;;;;;;;7.13;2.07;;;31.10;62.10;;;;;;5341428;26;20247;-65
2024/04/08 14:22:55;;;;;;;10.00;2.10;;;31.00;62.60;;;;;;5341805;26;20230;-66
2024/04/08 14:25:21;;;;;;;4.70;2.40;;;31.20;62.60;;;;;;5324870;26;20858;-66
2024/04/08 14:27:47;;;;;;;1.67;1.30;;;31.30;63.30;;;;;;5342450;26;20506;-66
2024/04/08 14:30:12;;;;;;;5.20;1.30;;;31.40;61.20;;;;;;5342053;26;20704;-66
2024/04/08 14:32:38;;;;;;;6.60;2.10;;;31.50;61.50;;;;;;5341740;26;20227;-66
2024/04/08 14:35:04;;;;;;;4.40;1.60;;;31.80;61.10;;;;;;5336466;26;21058;-66
2024/04/08 14:37:29;;;;;;;1.80;1.40;;;31.70;60.70;;;;;;5310575;26;20574;-67
2024/04/08 14:39:55;;;;;;;3.97;1.53;;;31.70;60.70;;;;;;5340594;26;21088;-66
2024/04/08 14:42:22;;;;;;;2.23;1.70;;;31.50;60.80;;;;;;5311230;26;20239;-66
2024/04/08 14:44:47;;;;;;;8.07;1.60;;;31.30;60.60;;;;;;5341070;26;20231;-66
2024/04/08 14:47:13;;;;;;;1.20;1.00;;;31.30;61.20;;;;;;5311021;26;20526;-66
2024/04/08 14:49:39;;;;;;;9.20;2.30;;;31.20;61.60;;;;;;5341140;26;20278;-66
2024/04/08 14:52:05;;;;;;;2.93;1.00;;;31.00;61.30;;;;;;5341637;26;20238;-66
2024/04/08 14:54:31;;;;;;;7.13;2.00;;;30.70;63.10;;;;;;5355360;26;20235;-66
2024/04/08 14:56:56;;;;;;;2.03;1.10;;;30.30;60.90;;;;;;5312636;26;20457;-66
2024/04/08 14:59:22;;;;;;;7.67;2.20;;;30.20;61.40;;;;;;5317750;26;20284;-66
2024/04/08 15:01:48;;;;;;;2.90;2.17;;;30.30;61.90;;;;;;5315897;26;20249;-67
2024/04/08 15:04:14;;;;;;;1.67;1.47;;;30.10;61.80;;;;;;5349908;26;20522;-66
2024/04/08 15:06:40;;;;;;;20.77;2.77;;;29.90;61.90;;;;;;5340220;26;20290;-66
2024/04/08 15:09:07;;;;;;;18.43;2.90;;;29.80;62.80;;;;;;5341116;26;20510;-66
2024/04/08 15:11:33;;;;;;;4.50;1.73;;;29.80;63.30;;;;;;5307117;26;20239;-66
2024/04/08 15:13:59;;;;;;;1.73;1.63;;;30.00;63.50;;;;;;5310308;26;20973;-66
2024/04/08 15:16:25;;;;;;;5.40;2.27;;;30.20;64.30;;;;;;5322481;26;20231;-69
2024/04/08 15:18:50;;;;;;;7.70;2.87;;;30.40;62.30;;;;;;5310414;26;20247;-66
2024/04/08 15:21:16;;;;;;;8.40;2.27;;;30.50;62.40;;;;;;5352866;26;20772;-66
2024/04/08 15:23:41;;;;;;;2.20;1.50;;;30.50;61.90;;;;;;5342824;26;20227;-66
2024/04/08 15:26:07;;;;;;;14.63;4.07;;;30.60;63.10;;;;;;5325480;26;20299;-65
2024/04/08 15:28:33;;;;;;;4.70;2.23;;;30.60;61.00;;;;;;5369769;26;20222;-66
2024/04/08 15:30:59;;;;;;;3.00;1.93;;;30.60;61.90;;;;;;5341261;26;20883;-66
2024/04/08 15:33:26;;;;;;;5.87;2.73;;;30.50;62.70;;;;;;5341430;26;21070;-66
2024/04/08 15:35:59;;;;;;;2.90;2.03;;;30.60;62.50;;;;;;5325417;26;20588;-66
2024/04/08 15:38:25;;;;;;;2.83;2.50;;;30.60;61.00;;;;;;5340629;26;20530;-66
2024/04/08 15:40:54;;;;;;;3.17;2.77;;;30.40;59.90;;;;;;5360361;26;21007;-66
2024/04/08 15:43:20;;;;;;;4.70;1.60;;;30.20;61.70;;;;;;5349506;26;20230;-66
2024/04/08 15:46:03;;;;;;;1.57;1.43;;;30.20;60.40;;;;;;5368080;26;20520;-66
2024/04/08 15:48:31;;;;;;;2.30;1.27;;;30.20;61.20;;;;;;5342924;26;20226;-66
2024/04/08 15:51:04;;;;;;;19.13;1.90;;;30.00;62.00;;;;;;5324888;26;20465;-66
2024/04/08 15:53:29;;;;;;;4.87;1.73;;;30.00;61.40;;;;;;5346712;26;20462;-66
2024/04/08 15:55:55;;;;;;;3.07;1.03;;;29.90;61.70;;;;;;5341994;26;20582;-66
2024/04/08 15:58:20;;;;;;;16.83;3.60;;;29.80;62.40;;;;;;5332476;26;20235;-66
2024/04/08 16:01:02;;;;;;;1.17;1.07;;;29.60;62.20;;;;;;5336797;26;20280;-67
2024/04/08 16:03:28;;;;;;;9.20;2.60;;;29.30;62.30;;;;;;5326207;26;20616;-66
2024/04/08 16:06:10;;;;;;;8.20;1.77;;;29.00;63.10;;;;;;5339425;26;21056;-67
2024/04/08 16:08:36;;;;;;;8.70;2.33;;;28.70;62.90;;;;;;5357196;26;20229;-67
2024/04/08 16:11:02;;;;;;;4.13;2.57;;;28.50;63.60;;;;;;5355214;26;20465;-66
2024/04/08 16:13:28;;;;;;;4.50;2.63;;;28.40;64.60;;;;;;5342099;26;20517;-67
2024/04/08 16:15:54;;;;;;;2.20;2.03;;;28.40;63.70;;;;;;5357022;26;21017;-66
2024/04/08 16:18:19;;;;;;;2.07;1.20;;;28.40;64.00;;;;;;5335508;26;20473;-66
2024/04/08 16:21:02;;;;;;;4.93;2.47;;;28.50;64.40;;;;;;5322784;26;20281;-66
2024/04/08 16:23:29;;;;;;;4.20;1.70;;;28.60;66.60;;;;;;5340793;26;20231;-66
2024/04/08 16:26:06;;;;;;;4.90;2.53;;;28.60;68.50;;;;;;5356523;26;20478;-66
2024/04/08 16:28:34;;;;;;;0.93;0.83;;;28.50;68.30;;;;;;5340722;26;20530;-66
2024/04/08 16:31:04;;;;;;;5.70;1.40;;;28.50;69.20;;;;;;5339683;26;21061;-66
2024/04/08 16:33:33;;;;;;;4.63;1.30;;;28.40;69.30;;;;;;5337873;26;20591;-66
2024/04/08 16:35:59;;;;;;;2.03;1.70;;;28.30;67.90;;;;;;5338177;26;20525;-66
2024/04/08 16:38:25;;;;;;;3.27;2.03;;;28.20;67.60;;;;;;5314307;26;20469;-66
2024/04/08 16:40:52;;;;;;;7.10;2.93;;;28.10;66.90;;;;;;5338942;26;20706;-66
2024/04/08 16:43:18;;;;;;;1.70;1.53;;;28.10;67.90;;;;;;5324368;26;20239;-66
2024/04/08 16:45:52;;;;;;;17.93;2.47;;;28.00;67.50;;;;;;5309644;26;20467;-66